sensor_id;sensor_type;location;lat;lon;timestamp;temperature;humidity
32811;DHT22;65470;47.324;8.548;2022-12-07T00:01:12;5.40;99.90
32811;DHT22;65470;47.324;8.548;2022-12-07T00:03:39;5.40;99.90
32811;DHT22;65470;47.324;8.548;2022-12-07T00:06:07;5.50;99.90
32811;DHT22;65470;47.324;8.548;2022-12-07T00:08:33;5.50;99.90
32811;DHT22;65470;47.324;8.548;2022-12-07T00:14:03;5.60;99.90
32811;DHT22;65470;47.324;8.548;2022-12-07T00:16:31;5.60;99.90
32811;DHT22;65470;47.324;8.548;2022-12-07T00:18:58;5.50;99.90
32811;DHT22;65470;47.324;8.548;2022-12-07T00:21:26;5.50;99.90
32811;DHT22;65470;47.324;8.548;2022-12-07T00:23:53;5.60;99.90
32811;DHT22;65470;47.324;8.548;2022-12-07T00:26:27;5.60;99.90
32811;DHT22;65470;47.324;8.548;2022-12-07T00:28:56;5.50;99.90
32811;DHT22;65470;47.324;8.548;2022-12-07T00:31:24;5.40;99.90
32811;DHT22;65470;47.324;8.548;2022-12-07T00:33:50;5.40;99.90
32811;DHT22;65470;47.324;8.548;2022-12-07T00:36:19;5.40;99.90
32811;DHT22;65470;47.324;8.548;2022-12-07T00:38:45;5.40;99.90
32811;DHT22;65470;47.324;8.548;2022-12-07T00:41:16;5.20;99.90
32811;DHT22;65470;47.324;8.548;2022-12-07T00:43:42;5.30;99.90
32811;DHT22;65470;47.324;8.548;2022-12-07T00:46:09;5.10;99.90
32811;DHT22;65470;47.324;8.548;2022-12-07T00:48:34;5.10;99.90
32811;DHT22;65470;47.324;8.548;2022-12-07T00:51:00;5.10;99.90
32811;DHT22;65470;47.324;8.548;2022-12-07T00:53:26;5.20;99.90
32811;DHT22;65470;47.324;8.548;2022-12-07T00:55:52;5.30;99.90
32811;DHT22;65470;47.324;8.548;2022-12-07T00:58:18;5.40;99.90
32811;DHT22;65470;47.324;8.548;2022-12-07T01:00:44;5.40;99.90
32811;DHT22;65470;47.324;8.548;2022-12-07T01:03:12;5.30;99.90
32811;DHT22;65470;47.324;8.548;2022-12-07T01:05:38;5.30;99.90
32811;DHT22;65470;47.324;8.548;2022-12-07T01:08:04;5.30;99.90
32811;DHT22;65470;47.324;8.548;2022-12-07T01:10:30;5.30;99.90
32811;DHT22;65470;47.324;8.548;2022-12-07T01:12:57;5.30;99.90
32811;DHT22;65470;47.324;8.548;2022-12-07T01:15:23;5.30;99.90
32811;DHT22;65470;47.324;8.548;2022-12-07T01:17:49;5.30;99.90
32811;DHT22;65470;47.324;8.548;2022-12-07T01:20:15;5.30;99.90
32811;DHT22;65470;47.324;8.548;2022-12-07T01:22:42;5.30;99.90
32811;DHT22;65470;47.324;8.548;2022-12-07T01:25:09;5.40;99.90
32811;DHT22;65470;47.324;8.548;2022-12-07T01:27:35;5.40;99.90
32811;DHT22;65470;47.324;8.548;2022-12-07T01:30:01;5.40;99.90
32811;DHT22;65470;47.324;8.548;2022-12-07T01:32:27;5.40;99.90
32811;DHT22;65470;47.324;8.548;2022-12-07T01:34:53;5.30;99.90
32811;DHT22;65470;47.324;8.548;2022-12-07T01:37:18;5.40;99.90
32811;DHT22;65470;47.324;8.548;2022-12-07T01:39:44;5.30;99.90
32811;DHT22;65470;47.324;8.548;2022-12-07T01:42:12;5.30;99.90
32811;DHT22;65470;47.324;8.548;2022-12-07T01:47:43;5.50;99.90
32811;DHT22;65470;47.324;8.548;2022-12-07T01:50:11;5.50;99.90
32811;DHT22;65470;47.324;8.548;2022-12-07T01:52:38;5.50;99.90
32811;DHT22;65470;47.324;8.548;2022-12-07T01:55:07;5.60;99.90
32811;DHT22;65470;47.324;8.548;2022-12-07T01:57:35;5.50;99.90
32811;DHT22;65470;47.324;8.548;2022-12-07T02:00:05;5.50;99.90
32811;DHT22;65470;47.324;8.548;2022-12-07T02:02:34;5.60;99.90
32811;DHT22;65470;47.324;8.548;2022-12-07T02:05:03;5.60;99.90
32811;DHT22;65470;47.324;8.548;2022-12-07T02:07:31;5.60;99.90
32811;DHT22;65470;47.324;8.548;2022-12-07T02:10:11;5.70;99.90
32811;DHT22;65470;47.324;8.548;2022-12-07T02:12:36;5.70;99.90
32811;DHT22;65470;47.324;8.548;2022-12-07T02:15:02;5.70;99.90
32811;DHT22;65470;47.324;8.548;2022-12-07T02:17:42;5.60;99.90
32811;DHT22;65470;47.324;8.548;2022-12-07T02:30:50;5.50;99.90
32811;DHT22;65470;47.324;8.548;2022-12-07T02:33:31;5.60;99.90
32811;DHT22;65470;47.324;8.548;2022-12-07T02:36:32;5.60;99.90
32811;DHT22;65470;47.324;8.548;2022-12-07T02:39:01;5.60;99.90
32811;DHT22;65470;47.324;8.548;2022-12-07T02:41:39;5.60;99.90
32811;DHT22;65470;47.324;8.548;2022-12-07T02:44:12;5.60;99.90
32811;DHT22;65470;47.324;8.548;2022-12-07T02:46:44;5.60;99.90
32811;DHT22;65470;47.324;8.548;2022-12-07T02:49:12;5.60;99.90
32811;DHT22;65470;47.324;8.548;2022-12-07T02:51:44;5.60;99.90
32811;DHT22;65470;47.324;8.548;2022-12-07T02:54:17;5.60;99.90
32811;DHT22;65470;47.324;8.548;2022-12-07T03:10:58;5.60;99.90
32811;DHT22;65470;47.324;8.548;2022-12-07T03:16:16;5.60;99.90
32811;DHT22;65470;47.324;8.548;2022-12-07T03:21:15;5.70;99.90
32811;DHT22;65470;47.324;8.548;2022-12-07T03:23:45;5.70;99.90
32811;DHT22;65470;47.324;8.548;2022-12-07T03:26:13;5.60;99.90
32811;DHT22;65470;47.324;8.548;2022-12-07T03:28:45;5.60;99.90
32811;DHT22;65470;47.324;8.548;2022-12-07T03:31:17;5.70;99.90
32811;DHT22;65470;47.324;8.548;2022-12-07T03:33:53;5.70;99.90
32811;DHT22;65470;47.324;8.548;2022-12-07T03:41:28;5.70;99.90
32811;DHT22;65470;47.324;8.548;2022-12-07T03:43:55;5.70;99.90
32811;DHT22;65470;47.324;8.548;2022-12-07T03:49:14;5.70;99.90
32811;DHT22;65470;47.324;8.548;2022-12-07T03:51:50;5.70;99.90
32811;DHT22;65470;47.324;8.548;2022-12-07T03:54:24;5.80;99.90
32811;DHT22;65470;47.324;8.548;2022-12-07T03:56:52;5.70;99.90
32811;DHT22;65470;47.324;8.548;2022-12-07T03:59:19;5.70;99.90
32811;DHT22;65470;47.324;8.548;2022-12-07T04:01:53;5.70;99.90
32811;DHT22;65470;47.324;8.548;2022-12-07T04:04:19;5.70;99.90
32811;DHT22;65470;47.324;8.548;2022-12-07T04:06:45;5.70;99.90
32811;DHT22;65470;47.324;8.548;2022-12-07T04:09:10;5.70;99.90
32811;DHT22;65470;47.324;8.548;2022-12-07T04:11:36;5.70;99.90
32811;DHT22;65470;47.324;8.548;2022-12-07T04:14:02;5.70;99.90
32811;DHT22;65470;47.324;8.548;2022-12-07T04:19:12;5.80;99.90
32811;DHT22;65470;47.324;8.548;2022-12-07T04:21:39;5.80;99.90
32811;DHT22;65470;47.324;8.548;2022-12-07T04:24:05;5.80;99.90
32811;DHT22;65470;47.324;8.548;2022-12-07T04:26:31;5.80;99.90
32811;DHT22;65470;47.324;8.548;2022-12-07T04:28:56;5.80;99.90
32811;DHT22;65470;47.324;8.548;2022-12-07T04:31:22;5.80;99.90
32811;DHT22;65470;47.324;8.548;2022-12-07T04:33:48;5.80;99.90
32811;DHT22;65470;47.324;8.548;2022-12-07T04:36:14;5.80;99.90
32811;DHT22;65470;47.324;8.548;2022-12-07T04:38:39;5.80;99.90
32811;DHT22;65470;47.324;8.548;2022-12-07T04:41:06;5.80;99.90
32811;DHT22;65470;47.324;8.548;2022-12-07T04:43:33;5.80;99.90
32811;DHT22;65470;47.324;8.548;2022-12-07T04:45:59;5.80;99.90
32811;DHT22;65470;47.324;8.548;2022-12-07T04:48:25;5.80;99.90
32811;DHT22;65470;47.324;8.548;2022-12-07T04:50:50;5.80;99.90
32811;DHT22;65470;47.324;8.548;2022-12-07T04:53:16;5.80;99.90
32811;DHT22;65470;47.324;8.548;2022-12-07T04:55:42;5.80;99.90
32811;DHT22;65470;47.324;8.548;2022-12-07T04:58:07;5.70;99.90
32811;DHT22;65470;47.324;8.548;2022-12-07T05:00:33;5.80;99.90
32811;DHT22;65470;47.324;8.548;2022-12-07T05:02:58;5.80;99.90
32811;DHT22;65470;47.324;8.548;2022-12-07T05:05:24;5.90;99.90
32811;DHT22;65470;47.324;8.548;2022-12-07T05:07:50;5.80;99.90
32811;DHT22;65470;47.324;8.548;2022-12-07T05:10:16;5.80;99.90
32811;DHT22;65470;47.324;8.548;2022-12-07T05:12:42;5.80;99.90
32811;DHT22;65470;47.324;8.548;2022-12-07T05:15:07;5.80;99.90
32811;DHT22;65470;47.324;8.548;2022-12-07T05:17:33;5.80;99.90
32811;DHT22;65470;47.324;8.548;2022-12-07T05:19:59;5.80;99.90
32811;DHT22;65470;47.324;8.548;2022-12-07T05:22:25;5.80;99.90
32811;DHT22;65470;47.324;8.548;2022-12-07T05:24:54;5.90;99.90
32811;DHT22;65470;47.324;8.548;2022-12-07T05:27:20;5.90;99.90
32811;DHT22;65470;47.324;8.548;2022-12-07T05:29:45;5.90;99.90
32811;DHT22;65470;47.324;8.548;2022-12-07T05:32:11;5.90;99.90
32811;DHT22;65470;47.324;8.548;2022-12-07T05:34:37;5.90;99.90
32811;DHT22;65470;47.324;8.548;2022-12-07T05:37:02;5.90;99.90
32811;DHT22;65470;47.324;8.548;2022-12-07T05:39:28;5.90;99.90
32811;DHT22;65470;47.324;8.548;2022-12-07T05:41:53;5.90;99.90
32811;DHT22;65470;47.324;8.548;2022-12-07T05:44:41;5.90;99.90
32811;DHT22;65470;47.324;8.548;2022-12-07T05:47:07;5.90;99.90
32811;DHT22;65470;47.324;8.548;2022-12-07T05:49:33;5.90;99.90
32811;DHT22;65470;47.324;8.548;2022-12-07T05:51:59;5.90;99.90
32811;DHT22;65470;47.324;8.548;2022-12-07T05:54:25;5.90;99.90
32811;DHT22;65470;47.324;8.548;2022-12-07T05:56:50;5.90;99.90
32811;DHT22;65470;47.324;8.548;2022-12-07T05:59:16;5.90;99.90
32811;DHT22;65470;47.324;8.548;2022-12-07T06:01:52;5.90;99.90
32811;DHT22;65470;47.324;8.548;2022-12-07T06:04:18;6.00;99.90
32811;DHT22;65470;47.324;8.548;2022-12-07T06:06:44;6.00;99.90
32811;DHT22;65470;47.324;8.548;2022-12-07T06:09:09;6.00;99.90
32811;DHT22;65470;47.324;8.548;2022-12-07T06:11:35;5.90;99.90
32811;DHT22;65470;47.324;8.548;2022-12-07T06:14:20;5.90;99.90
32811;DHT22;65470;47.324;8.548;2022-12-07T06:16:45;5.90;99.90
32811;DHT22;65470;47.324;8.548;2022-12-07T06:19:11;5.90;99.90
32811;DHT22;65470;47.324;8.548;2022-12-07T06:21:37;6.00;99.90
32811;DHT22;65470;47.324;8.548;2022-12-07T06:24:03;6.00;99.90
32811;DHT22;65470;47.324;8.548;2022-12-07T06:26:28;5.90;99.90
32811;DHT22;65470;47.324;8.548;2022-12-07T06:28:54;5.90;99.90
32811;DHT22;65470;47.324;8.548;2022-12-07T06:31:20;6.00;99.90
32811;DHT22;65470;47.324;8.548;2022-12-07T06:33:45;6.10;99.90
32811;DHT22;65470;47.324;8.548;2022-12-07T06:36:11;6.00;99.90
32811;DHT22;65470;47.324;8.548;2022-12-07T06:38:37;6.00;99.90
32811;DHT22;65470;47.324;8.548;2022-12-07T06:41:03;6.00;99.90
32811;DHT22;65470;47.324;8.548;2022-12-07T06:43:29;6.00;99.90
32811;DHT22;65470;47.324;8.548;2022-12-07T06:45:54;6.00;99.90
32811;DHT22;65470;47.324;8.548;2022-12-07T06:48:20;5.90;99.90
32811;DHT22;65470;47.324;8.548;2022-12-07T06:50:47;5.90;99.90
32811;DHT22;65470;47.324;8.548;2022-12-07T06:53:12;5.90;99.90
32811;DHT22;65470;47.324;8.548;2022-12-07T06:55:38;5.90;99.90
32811;DHT22;65470;47.324;8.548;2022-12-07T06:58:04;5.90;99.90
32811;DHT22;65470;47.324;8.548;2022-12-07T07:00:29;5.90;99.90
32811;DHT22;65470;47.324;8.548;2022-12-07T07:02:55;6.00;99.90
32811;DHT22;65470;47.324;8.548;2022-12-07T07:05:21;6.00;99.90
32811;DHT22;65470;47.324;8.548;2022-12-07T07:07:50;6.00;99.90
32811;DHT22;65470;47.324;8.548;2022-12-07T07:10:15;6.00;99.90
32811;DHT22;65470;47.324;8.548;2022-12-07T07:12:41;6.00;99.90
32811;DHT22;65470;47.324;8.548;2022-12-07T07:15:07;6.00;99.90
32811;DHT22;65470;47.324;8.548;2022-12-07T07:17:33;6.00;99.90
32811;DHT22;65470;47.324;8.548;2022-12-07T07:19:59;6.00;99.90
32811;DHT22;65470;47.324;8.548;2022-12-07T07:22:24;6.00;99.90
32811;DHT22;65470;47.324;8.548;2022-12-07T07:24:50;6.00;99.90
32811;DHT22;65470;47.324;8.548;2022-12-07T07:27:15;6.00;99.90
32811;DHT22;65470;47.324;8.548;2022-12-07T07:29:41;6.00;99.90
32811;DHT22;65470;47.324;8.548;2022-12-07T07:32:07;6.00;99.90
32811;DHT22;65470;47.324;8.548;2022-12-07T07:34:33;6.10;99.90
32811;DHT22;65470;47.324;8.548;2022-12-07T07:36:59;6.00;99.90
32811;DHT22;65470;47.324;8.548;2022-12-07T07:39:25;6.10;99.90
32811;DHT22;65470;47.324;8.548;2022-12-07T07:41:51;6.10;99.90
32811;DHT22;65470;47.324;8.548;2022-12-07T07:44:16;6.00;99.90
32811;DHT22;65470;47.324;8.548;2022-12-07T07:46:42;5.90;99.90
32811;DHT22;65470;47.324;8.548;2022-12-07T07:49:09;5.90;99.90
32811;DHT22;65470;47.324;8.548;2022-12-07T07:51:36;5.90;99.90
32811;DHT22;65470;47.324;8.548;2022-12-07T07:54:01;5.90;99.90
32811;DHT22;65470;47.324;8.548;2022-12-07T07:56:27;5.80;99.90
32811;DHT22;65470;47.324;8.548;2022-12-07T07:58:53;5.80;99.90
32811;DHT22;65470;47.324;8.548;2022-12-07T08:01:19;5.80;99.90
32811;DHT22;65470;47.324;8.548;2022-12-07T08:03:47;5.80;99.90
32811;DHT22;65470;47.324;8.548;2022-12-07T08:06:13;5.80;99.90
32811;DHT22;65470;47.324;8.548;2022-12-07T08:08:39;5.80;99.90
32811;DHT22;65470;47.324;8.548;2022-12-07T08:11:06;5.80;99.90
32811;DHT22;65470;47.324;8.548;2022-12-07T08:13:31;5.80;99.90
32811;DHT22;65470;47.324;8.548;2022-12-07T08:15:57;5.90;99.90
32811;DHT22;65470;47.324;8.548;2022-12-07T08:18:22;5.80;99.90
32811;DHT22;65470;47.324;8.548;2022-12-07T08:20:48;5.80;99.90
32811;DHT22;65470;47.324;8.548;2022-12-07T08:23:14;5.80;99.90
32811;DHT22;65470;47.324;8.548;2022-12-07T08:25:40;5.90;99.90
32811;DHT22;65470;47.324;8.548;2022-12-07T08:28:06;6.00;99.90
32811;DHT22;65470;47.324;8.548;2022-12-07T08:30:32;6.00;99.90
32811;DHT22;65470;47.324;8.548;2022-12-07T08:32:58;6.10;99.90
32811;DHT22;65470;47.324;8.548;2022-12-07T08:35:24;6.10;99.90
32811;DHT22;65470;47.324;8.548;2022-12-07T08:37:50;6.10;99.90
32811;DHT22;65470;47.324;8.548;2022-12-07T08:40:15;6.00;99.90
32811;DHT22;65470;47.324;8.548;2022-12-07T08:42:47;6.10;99.90
32811;DHT22;65470;47.324;8.548;2022-12-07T08:45:15;6.10;99.90
32811;DHT22;65470;47.324;8.548;2022-12-07T08:47:48;6.10;99.90
32811;DHT22;65470;47.324;8.548;2022-12-07T08:50:15;6.10;99.90
32811;DHT22;65470;47.324;8.548;2022-12-07T08:52:42;6.10;99.90
32811;DHT22;65470;47.324;8.548;2022-12-07T08:55:10;6.10;99.90
32811;DHT22;65470;47.324;8.548;2022-12-07T08:57:36;6.00;99.90
32811;DHT22;65470;47.324;8.548;2022-12-07T09:00:04;6.10;99.90
32811;DHT22;65470;47.324;8.548;2022-12-07T09:02:31;6.00;99.90
32811;DHT22;65470;47.324;8.548;2022-12-07T09:04:56;6.00;99.90
32811;DHT22;65470;47.324;8.548;2022-12-07T09:07:22;6.00;99.90
32811;DHT22;65470;47.324;8.548;2022-12-07T09:09:48;6.10;99.90
32811;DHT22;65470;47.324;8.548;2022-12-07T09:12:14;6.10;99.90
32811;DHT22;65470;47.324;8.548;2022-12-07T09:14:39;6.20;99.90
32811;DHT22;65470;47.324;8.548;2022-12-07T09:17:07;5.90;99.90
32811;DHT22;65470;47.324;8.548;2022-12-07T09:19:33;5.90;99.90
32811;DHT22;65470;47.324;8.548;2022-12-07T09:21:58;6.00;99.90
32811;DHT22;65470;47.324;8.548;2022-12-07T09:24:24;6.10;99.90
32811;DHT22;65470;47.324;8.548;2022-12-07T09:26:50;6.10;99.90
32811;DHT22;65470;47.324;8.548;2022-12-07T09:29:15;6.20;99.90
32811;DHT22;65470;47.324;8.548;2022-12-07T09:31:41;6.20;99.90
32811;DHT22;65470;47.324;8.548;2022-12-07T09:34:07;6.10;99.90
32811;DHT22;65470;47.324;8.548;2022-12-07T09:36:33;6.10;99.90
32811;DHT22;65470;47.324;8.548;2022-12-07T09:38:59;6.10;99.90
32811;DHT22;65470;47.324;8.548;2022-12-07T09:41:26;6.10;99.90
32811;DHT22;65470;47.324;8.548;2022-12-07T09:43:58;6.10;99.90
32811;DHT22;65470;47.324;8.548;2022-12-07T09:46:27;6.00;99.90
32811;DHT22;65470;47.324;8.548;2022-12-07T09:48:54;6.10;99.90
32811;DHT22;65470;47.324;8.548;2022-12-07T09:51:21;6.10;99.90
32811;DHT22;65470;47.324;8.548;2022-12-07T09:53:48;6.20;99.90
32811;DHT22;65470;47.324;8.548;2022-12-07T09:56:16;6.20;99.90
32811;DHT22;65470;47.324;8.548;2022-12-07T09:58:43;6.20;99.90
32811;DHT22;65470;47.324;8.548;2022-12-07T10:01:13;6.20;99.90
32811;DHT22;65470;47.324;8.548;2022-12-07T10:06:15;6.30;99.90
32811;DHT22;65470;47.324;8.548;2022-12-07T10:08:41;6.20;99.90
32811;DHT22;65470;47.324;8.548;2022-12-07T10:11:09;6.20;99.90
32811;DHT22;65470;47.324;8.548;2022-12-07T10:13:42;6.30;99.90
32811;DHT22;65470;47.324;8.548;2022-12-07T10:16:38;6.20;99.90
32811;DHT22;65470;47.324;8.548;2022-12-07T10:19:28;6.30;99.90
32811;DHT22;65470;47.324;8.548;2022-12-07T10:22:09;6.30;99.90
32811;DHT22;65470;47.324;8.548;2022-12-07T10:24:35;6.30;99.90
32811;DHT22;65470;47.324;8.548;2022-12-07T10:27:05;6.40;99.90
32811;DHT22;65470;47.324;8.548;2022-12-07T10:29:36;6.40;99.90
32811;DHT22;65470;47.324;8.548;2022-12-07T10:32:05;6.50;99.90
32811;DHT22;65470;47.324;8.548;2022-12-07T10:34:34;6.60;99.90
32811;DHT22;65470;47.324;8.548;2022-12-07T10:42:30;6.60;99.90
32811;DHT22;65470;47.324;8.548;2022-12-07T10:45:12;6.60;99.90
32811;DHT22;65470;47.324;8.548;2022-12-07T10:48:19;6.60;99.90
32811;DHT22;65470;47.324;8.548;2022-12-07T11:00:40;6.80;99.90
32811;DHT22;65470;47.324;8.548;2022-12-07T11:05:44;7.00;99.90
32811;DHT22;65470;47.324;8.548;2022-12-07T11:08:25;7.00;99.90
32811;DHT22;65470;47.324;8.548;2022-12-07T11:13:27;7.10;99.90
32811;DHT22;65470;47.324;8.548;2022-12-07T11:24:20;7.40;99.90
32811;DHT22;65470;47.324;8.548;2022-12-07T11:38:17;7.40;99.90
32811;DHT22;65470;47.324;8.548;2022-12-07T11:40:48;7.30;99.90
32811;DHT22;65470;47.324;8.548;2022-12-07T11:43:28;7.20;99.90
32811;DHT22;65470;47.324;8.548;2022-12-07T11:51:21;7.10;99.90
32811;DHT22;65470;47.324;8.548;2022-12-07T11:54:05;7.20;99.90
32811;DHT22;65470;47.324;8.548;2022-12-07T11:56:37;7.30;99.90
32811;DHT22;65470;47.324;8.548;2022-12-07T12:06:40;7.40;99.90
32811;DHT22;65470;47.324;8.548;2022-12-07T12:12:09;7.50;99.90
32811;DHT22;65470;47.324;8.548;2022-12-07T12:28:41;7.40;99.90
32811;DHT22;65470;47.324;8.548;2022-12-07T12:31:16;7.30;99.90
32811;DHT22;65470;47.324;8.548;2022-12-07T12:33:59;7.30;99.90
32811;DHT22;65470;47.324;8.548;2022-12-07T12:51:49;7.30;99.90
32811;DHT22;65470;47.324;8.548;2022-12-07T12:59:30;7.30;99.90
32811;DHT22;65470;47.324;8.548;2022-12-07T13:05:01;7.30;99.90
32811;DHT22;65470;47.324;8.548;2022-12-07T13:08:01;7.40;99.90
32811;DHT22;65470;47.324;8.548;2022-12-07T13:15:37;7.60;99.90
32811;DHT22;65470;47.324;8.548;2022-12-07T13:31:40;7.80;99.90
32811;DHT22;65470;47.324;8.548;2022-12-07T13:34:39;7.70;99.90
32811;DHT22;65470;47.324;8.548;2022-12-07T13:37:10;7.80;99.90
32811;DHT22;65470;47.324;8.548;2022-12-07T13:39:45;7.90;99.90
32811;DHT22;65470;47.324;8.548;2022-12-07T13:42:40;7.90;99.90
32811;DHT22;65470;47.324;8.548;2022-12-07T13:45:28;7.90;99.90
32811;DHT22;65470;47.324;8.548;2022-12-07T13:48:30;7.90;99.90
32811;DHT22;65470;47.324;8.548;2022-12-07T13:50:59;7.90;99.90
32811;DHT22;65470;47.324;8.548;2022-12-07T13:53:26;8.00;99.90
32811;DHT22;65470;47.324;8.548;2022-12-07T13:56:00;8.00;99.90
32811;DHT22;65470;47.324;8.548;2022-12-07T13:58:29;7.90;99.90
32811;DHT22;65470;47.324;8.548;2022-12-07T14:00:56;8.00;99.90
32811;DHT22;65470;47.324;8.548;2022-12-07T14:03:33;7.90;99.90
32811;DHT22;65470;47.324;8.548;2022-12-07T14:08:41;7.70;99.90
32811;DHT22;65470;47.324;8.548;2022-12-07T14:11:13;7.70;99.90
32811;DHT22;65470;47.324;8.548;2022-12-07T14:18:55;7.60;99.90
32811;DHT22;65470;47.324;8.548;2022-12-07T14:21:27;7.60;99.90
32811;DHT22;65470;47.324;8.548;2022-12-07T14:24:07;7.60;99.90
32811;DHT22;65470;47.324;8.548;2022-12-07T14:26:33;7.60;99.90
32811;DHT22;65470;47.324;8.548;2022-12-07T14:29:18;7.70;99.90
32811;DHT22;65470;47.324;8.548;2022-12-07T14:31:44;7.60;99.90
32811;DHT22;65470;47.324;8.548;2022-12-07T14:34:13;7.50;99.90
32811;DHT22;65470;47.324;8.548;2022-12-07T14:36:39;7.60;99.90
32811;DHT22;65470;47.324;8.548;2022-12-07T14:39:04;7.60;99.90
32811;DHT22;65470;47.324;8.548;2022-12-07T14:41:30;7.40;99.90
32811;DHT22;65470;47.324;8.548;2022-12-07T14:44:14;7.40;99.90
32811;DHT22;65470;47.324;8.548;2022-12-07T14:46:40;7.30;99.90
32811;DHT22;65470;47.324;8.548;2022-12-07T14:49:05;7.30;99.90
32811;DHT22;65470;47.324;8.548;2022-12-07T14:51:32;7.20;99.90
32811;DHT22;65470;47.324;8.548;2022-12-07T14:53:58;7.20;99.90
32811;DHT22;65470;47.324;8.548;2022-12-07T14:56:25;7.10;99.90
32811;DHT22;65470;47.324;8.548;2022-12-07T14:58:50;7.20;99.90
32811;DHT22;65470;47.324;8.548;2022-12-07T15:01:16;7.20;99.90
32811;DHT22;65470;47.324;8.548;2022-12-07T15:03:42;7.20;99.90
32811;DHT22;65470;47.324;8.548;2022-12-07T15:06:10;7.10;99.90
32811;DHT22;65470;47.324;8.548;2022-12-07T15:08:38;7.10;99.90
32811;DHT22;65470;47.324;8.548;2022-12-07T15:11:04;7.00;99.90
32811;DHT22;65470;47.324;8.548;2022-12-07T15:13:29;7.10;99.90
32811;DHT22;65470;47.324;8.548;2022-12-07T15:16:18;7.00;99.90
32811;DHT22;65470;47.324;8.548;2022-12-07T15:18:44;7.00;99.90
32811;DHT22;65470;47.324;8.548;2022-12-07T15:21:14;7.00;99.90
32811;DHT22;65470;47.324;8.548;2022-12-07T15:23:40;7.00;99.90
32811;DHT22;65470;47.324;8.548;2022-12-07T15:26:06;6.90;99.90
32811;DHT22;65470;47.324;8.548;2022-12-07T15:28:33;6.90;99.90
32811;DHT22;65470;47.324;8.548;2022-12-07T15:30:59;6.90;99.90
32811;DHT22;65470;47.324;8.548;2022-12-07T15:33:24;6.90;99.90
32811;DHT22;65470;47.324;8.548;2022-12-07T15:35:50;6.80;99.90
32811;DHT22;65470;47.324;8.548;2022-12-07T15:38:16;6.80;99.90
32811;DHT22;65470;47.324;8.548;2022-12-07T15:40:41;6.80;99.90
32811;DHT22;65470;47.324;8.548;2022-12-07T15:43:10;6.80;99.90
32811;DHT22;65470;47.324;8.548;2022-12-07T15:45:55;6.80;99.90
32811;DHT22;65470;47.324;8.548;2022-12-07T15:48:21;6.80;99.90
32811;DHT22;65470;47.324;8.548;2022-12-07T15:50:46;6.70;99.90
32811;DHT22;65470;47.324;8.548;2022-12-07T15:53:12;6.70;99.90
32811;DHT22;65470;47.324;8.548;2022-12-07T15:55:41;6.80;99.90
32811;DHT22;65470;47.324;8.548;2022-12-07T15:58:07;6.70;99.90
32811;DHT22;65470;47.324;8.548;2022-12-07T16:00:33;6.70;99.90
32811;DHT22;65470;47.324;8.548;2022-12-07T16:02:58;6.70;99.90
32811;DHT22;65470;47.324;8.548;2022-12-07T16:05:24;6.70;99.90
32811;DHT22;65470;47.324;8.548;2022-12-07T16:07:49;6.70;99.90
32811;DHT22;65470;47.324;8.548;2022-12-07T16:10:15;6.70;99.90
32811;DHT22;65470;47.324;8.548;2022-12-07T16:12:41;6.70;99.90
32811;DHT22;65470;47.324;8.548;2022-12-07T16:15:07;6.60;99.90
32811;DHT22;65470;47.324;8.548;2022-12-07T16:17:33;6.60;99.90
32811;DHT22;65470;47.324;8.548;2022-12-07T16:19:58;6.60;99.90
32811;DHT22;65470;47.324;8.548;2022-12-07T16:22:24;6.60;99.90
32811;DHT22;65470;47.324;8.548;2022-12-07T16:24:50;6.60;99.90
32811;DHT22;65470;47.324;8.548;2022-12-07T16:27:15;6.70;99.90
32811;DHT22;65470;47.324;8.548;2022-12-07T16:29:41;6.60;99.90
32811;DHT22;65470;47.324;8.548;2022-12-07T16:32:07;6.60;99.90
32811;DHT22;65470;47.324;8.548;2022-12-07T16:34:33;6.60;99.90
32811;DHT22;65470;47.324;8.548;2022-12-07T16:36:58;6.60;99.90
32811;DHT22;65470;47.324;8.548;2022-12-07T16:39:24;6.60;99.90
32811;DHT22;65470;47.324;8.548;2022-12-07T16:41:50;6.60;99.90
32811;DHT22;65470;47.324;8.548;2022-12-07T16:44:16;6.60;99.90
32811;DHT22;65470;47.324;8.548;2022-12-07T16:46:42;6.50;99.90
32811;DHT22;65470;47.324;8.548;2022-12-07T16:49:13;6.50;99.90
32811;DHT22;65470;47.324;8.548;2022-12-07T16:51:39;6.40;99.90
32811;DHT22;65470;47.324;8.548;2022-12-07T16:54:04;6.30;99.90
32811;DHT22;65470;47.324;8.548;2022-12-07T16:56:30;6.20;99.90
32811;DHT22;65470;47.324;8.548;2022-12-07T16:58:58;6.30;99.90
32811;DHT22;65470;47.324;8.548;2022-12-07T17:01:24;6.20;99.90
32811;DHT22;65470;47.324;8.548;2022-12-07T17:03:50;6.30;99.90
32811;DHT22;65470;47.324;8.548;2022-12-07T17:06:19;6.30;99.90
32811;DHT22;65470;47.324;8.548;2022-12-07T17:08:46;6.30;99.90
32811;DHT22;65470;47.324;8.548;2022-12-07T17:11:17;6.40;99.90
32811;DHT22;65470;47.324;8.548;2022-12-07T17:13:43;6.30;99.90
32811;DHT22;65470;47.324;8.548;2022-12-07T17:16:29;6.30;99.90
32811;DHT22;65470;47.324;8.548;2022-12-07T17:18:55;6.30;99.90
32811;DHT22;65470;47.324;8.548;2022-12-07T17:21:21;6.30;99.90
32811;DHT22;65470;47.324;8.548;2022-12-07T17:23:47;6.20;99.90
32811;DHT22;65470;47.324;8.548;2022-12-07T17:26:23;6.20;99.90
32811;DHT22;65470;47.324;8.548;2022-12-07T17:28:50;6.10;99.90
32811;DHT22;65470;47.324;8.548;2022-12-07T17:31:17;6.10;99.90
32811;DHT22;65470;47.324;8.548;2022-12-07T17:33:44;6.10;99.90
32811;DHT22;65470;47.324;8.548;2022-12-07T17:38:40;6.10;99.90
32811;DHT22;65470;47.324;8.548;2022-12-07T17:41:16;6.10;99.90
32811;DHT22;65470;47.324;8.548;2022-12-07T17:44:03;6.10;99.90
32811;DHT22;65470;47.324;8.548;2022-12-07T17:46:30;6.10;99.90
32811;DHT22;65470;47.324;8.548;2022-12-07T17:48:57;6.10;99.90
32811;DHT22;65470;47.324;8.548;2022-12-07T17:51:23;6.00;99.90
32811;DHT22;65470;47.324;8.548;2022-12-07T17:54:08;6.10;99.90
32811;DHT22;65470;47.324;8.548;2022-12-07T17:56:34;6.00;99.90
32811;DHT22;65470;47.324;8.548;2022-12-07T17:59:00;6.00;99.90
32811;DHT22;65470;47.324;8.548;2022-12-07T18:01:25;6.00;99.90
32811;DHT22;65470;47.324;8.548;2022-12-07T18:03:51;6.00;99.90
32811;DHT22;65470;47.324;8.548;2022-12-07T18:06:17;6.00;99.90
32811;DHT22;65470;47.324;8.548;2022-12-07T18:08:43;6.00;99.90
32811;DHT22;65470;47.324;8.548;2022-12-07T18:11:08;5.90;99.90
32811;DHT22;65470;47.324;8.548;2022-12-07T18:13:34;5.90;99.90
32811;DHT22;65470;47.324;8.548;2022-12-07T18:16:05;5.90;99.90
32811;DHT22;65470;47.324;8.548;2022-12-07T18:18:31;5.90;99.90
32811;DHT22;65470;47.324;8.548;2022-12-07T18:20:56;5.80;99.90
32811;DHT22;65470;47.324;8.548;2022-12-07T18:23:22;5.80;99.90
32811;DHT22;65470;47.324;8.548;2022-12-07T18:25:48;5.80;99.90
32811;DHT22;65470;47.324;8.548;2022-12-07T18:28:14;5.80;99.90
32811;DHT22;65470;47.324;8.548;2022-12-07T18:30:40;5.80;99.90
32811;DHT22;65470;47.324;8.548;2022-12-07T18:33:06;5.80;99.90
32811;DHT22;65470;47.324;8.548;2022-12-07T18:35:31;5.80;99.90
32811;DHT22;65470;47.324;8.548;2022-12-07T18:38:01;5.80;99.90
32811;DHT22;65470;47.324;8.548;2022-12-07T18:40:27;5.80;99.90
32811;DHT22;65470;47.324;8.548;2022-12-07T18:42:53;5.80;99.90
32811;DHT22;65470;47.324;8.548;2022-12-07T18:45:18;5.80;99.90